Terminal Aerodrome Forecast
Issued by NWS

Home | Current Version | Previous Version | Text Only | Print | Product List | Glossary Off
Versions: 1 2 3 4 5 6 7 8 9 10 11 12 13 14 15

013
FTUS43 KICT 091129
TAFCNU
TAF
KCNU 091129Z 0912/1012 32013KT P6SM FEW250
     FM091600 34019G27KT P6SM FEW250
     FM092300 33013KT P6SM FEW250
     FM100100 33007KT P6SM SCT080
     FM101000 VRB03KT P6SM BKN060=

USA.gov is the U.S. government's official web portal to all federal, state and local government web resources and services.